Time;durP1;ratioP1;P1;durP2;ratioP2;P2;SDS_P1;SDS_P2;PMS_P1;PMS_P2;Temp;Humidity;BMP_temperature;BMP_pressure;BME280_temperature;BME280_humidity;BME280_pressure;Samples;Min_cycle;Max_cycle;Signal;HPM_P1;HPM_P2
2022/10/29 00:00:33;;;;;;;21.15;9.77;;;;;;;13.93;98.69;102107.41;5033203;28;20021;-76
2022/10/29 00:02:59;;;;;;;21.95;9.45;;;;;;;13.90;99.00;102109.25;5033521;28;20112;-76
2022/10/29 00:05:24;;;;;;;19.63;9.73;;;;;;;13.88;98.38;102105.72;5033709;28;20033;-76
2022/10/29 00:07:50;;;;;;;22.00;9.38;;;;;;;13.87;98.97;102101.28;5033446;28;20037;-76
2022/10/29 00:10:15;;;;;;;20.90;9.43;;;;;;;13.84;98.95;102096.88;5048673;28;20043;-77
2022/10/29 00:12:41;;;;;;;20.65;8.70;;;;;;;13.81;99.66;102086.28;5032155;28;20029;-76
2022/10/29 00:15:07;;;;;;;22.88;9.55;;;;;;;13.77;99.50;102084.56;5031874;28;20037;-76
2022/10/29 00:17:33;;;;;;;18.55;9.68;;;;;;;13.75;99.30;102081.09;5031889;28;20025;-76
2022/10/29 00:19:58;;;;;;;19.88;9.40;;;;;;;13.73;99.46;102080.22;5033082;28;20469;-76
2022/10/29 00:22:24;;;;;;;25.67;9.65;;;;;;;13.70;99.24;102082.94;5048323;28;20040;-76
2022/10/29 00:24:49;;;;;;;19.15;8.77;;;;;;;13.66;99.05;102086.53;5020179;28;20105;-76
2022/10/29 00:27:14;;;;;;;23.65;9.23;;;;;;;13.62;98.56;102092.78;5014561;28;20048;-75
2022/10/29 00:29:40;;;;;;;27.15;9.43;;;;;;;13.55;98.34;102094.69;5014912;28;20120;-75
2022/10/29 00:32:05;;;;;;;21.13;9.13;;;;;;;13.52;98.93;102092.91;5028750;28;20038;-75
2022/10/29 00:34:31;;;;;;;16.95;9.43;;;;;;;13.47;98.46;102101.88;5022415;28;20045;-75
2022/10/29 00:36:56;;;;;;;19.02;9.70;;;;;;;13.41;98.47;102102.84;5032477;28;20061;-75
2022/10/29 00:39:22;;;;;;;20.38;10.00;;;;;;;13.39;98.93;102101.97;5048155;28;20397;-75
2022/10/29 00:41:47;;;;;;;22.10;9.43;;;;;;;13.38;100.00;102094.91;5027926;28;20038;-75
2022/10/29 00:44:19;;;;;;;21.95;9.80;;;;;;;13.38;100.00;102096.66;5034580;28;20076;-75
2022/10/29 00:47:37;;;;;;;23.45;10.00;;;;;;;13.38;100.00;102097.56;5057387;28;20033;-75
2022/10/29 00:50:09;;;;;;;25.42;10.23;;;;;;;13.37;100.00;102100.25;4983932;28;20049;-75
2022/10/29 00:52:39;;;;;;;19.20;10.52;;;;;;;13.39;100.00;102101.09;5032600;28;20087;-75
2022/10/29 00:55:07;;;;;;;25.63;10.45;;;;;;;13.40;100.00;102097.53;5032472;28;20036;-75
2022/10/29 00:57:39;;;;;;;25.67;10.18;;;;;;;13.43;100.00;102095.72;5030804;28;20034;-75
2022/10/29 01:00:05;;;;;;;29.88;11.18;;;;;;;13.45;100.00;102099.25;5042317;28;20452;-75
2022/10/29 01:02:33;;;;;;;23.52;10.85;;;;;;;13.50;100.00;102109.81;5032211;28;20103;-75
2022/10/29 01:05:02;;;;;;;31.40;11.27;;;;;;;13.53;100.00;102105.34;5030356;28;20041;-75
2022/10/29 01:07:27;;;;;;;21.70;10.32;;;;;;;13.55;100.00;102098.22;5032250;28;20081;-75
2022/10/29 01:09:53;;;;;;;22.35;10.77;;;;;;;13.60;100.00;102094.59;5031911;28;20033;-75
2022/10/29 01:12:52;;;;;;;21.70;9.95;;;;;;;13.62;100.00;102085.69;5032066;28;20038;-75
2022/10/29 01:15:43;;;;;;;29.50;10.40;;;;;;;13.63;100.00;102078.59;5020165;28;20033;-75
2022/10/29 01:18:17;;;;;;;26.17;10.73;;;;;;;13.64;100.00;102088.34;5031979;28;20059;-75
2022/10/29 01:21:04;;;;;;;23.25;9.95;;;;;;;13.64;100.00;102080.34;5032009;28;20363;-75
2022/10/29 01:24:00;;;;;;;23.55;10.27;;;;;;;13.64;100.00;102073.22;5047254;28;20033;-75
2022/10/29 01:27:03;;;;;;;21.67;10.90;;;;;;;13.65;100.00;102069.69;5031941;28;20508;-75
2022/10/29 01:30:12;;;;;;;19.13;9.93;;;;;;;13.64;100.00;102070.56;5047236;28;20111;-76
2022/10/29 01:32:50;;;;;;;17.88;9.35;;;;;;;13.60;100.00;102076.88;5012862;28;20065;-75
2022/10/29 01:35:21;;;;;;;23.33;9.88;;;;;;;13.58;100.00;102081.31;5028868;28;20034;-75
2022/10/29 01:38:08;;;;;;;21.00;10.38;;;;;;;13.57;100.00;102071.56;5031664;28;20057;-75
2022/10/29 01:40:47;;;;;;;19.20;9.82;;;;;;;13.53;100.00;102067.22;5037051;28;20043;-75
2022/10/29 01:43:44;;;;;;;21.15;9.55;;;;;;;13.52;100.00;102063.63;5037439;28;20041;-75
2022/10/29 01:46:20;;;;;;;25.33;9.43;;;;;;;13.46;100.00;102055.75;5035914;28;20048;-75
2022/10/29 01:48:50;;;;;;;23.85;10.15;;;;;;;13.40;100.00;102050.53;5035324;28;20069;-75
2022/10/29 01:51:25;;;;;;;22.45;9.20;;;;;;;13.38;100.00;102047.03;5031642;28;20056;-75
2022/10/29 01:53:51;;;;;;;20.95;8.82;;;;;;;13.34;100.00;102039.97;5030050;28;20041;-75
2022/10/29 01:56:17;;;;;;;22.70;9.15;;;;;;;13.32;100.00;102029.34;5031346;28;20041;-75
2022/10/29 01:58:46;;;;;;;19.10;8.93;;;;;;;13.29;100.00;102025.84;5039368;28;20029;-75
2022/10/29 02:01:26;;;;;;;20.65;9.50;;;;;;;13.27;100.00;102025.00;5031479;28;20033;-75
2022/10/29 02:04:01;;;;;;;18.55;9.73;;;;;;;13.25;100.00;102022.34;5031202;28;20045;-75
2022/10/29 02:06:48;;;;;;;21.77;9.48;;;;;;;13.24;100.00;102027.66;5031329;28;20045;-75
2022/10/29 02:09:58;;;;;;;23.75;9.82;;;;;;;13.20;100.00;102028.59;5031208;28;20121;-75
2022/10/29 02:12:37;;;;;;;25.58;10.15;;;;;;;13.16;100.00;102029.56;5011708;28;20064;-75
2022/10/29 02:15:13;;;;;;;19.48;10.38;;;;;;;13.10;100.00;102033.16;5031039;28;20175;-75
2022/10/29 02:17:39;;;;;;;20.42;10.35;;;;;;;13.05;100.00;102033.22;5030881;28;20029;-75
2022/10/29 02:20:07;;;;;;;21.48;10.15;;;;;;;13.01;100.00;102035.97;5031050;28;20102;-75
2022/10/29 02:22:33;;;;;;;17.40;10.30;;;;;;;12.95;100.00;102028.94;5045356;28;20385;-75
2022/10/29 02:24:58;;;;;;;17.98;9.40;;;;;;;12.91;100.00;102030.75;5029640;28;20034;-75
2022/10/29 02:27:24;;;;;;;24.40;9.55;;;;;;;12.85;100.00;102030.81;5029637;28;20042;-75
2022/10/29 02:29:49;;;;;;;20.23;9.45;;;;;;;12.83;100.00;102014.03;5031049;28;20521;-75
2022/10/29 02:32:15;;;;;;;20.65;9.43;;;;;;;12.76;100.00;102004.38;5012899;28;20485;-75
2022/10/29 02:34:40;;;;;;;19.85;8.75;;;;;;;12.75;100.00;102009.69;5046288;28;20118;-75
2022/10/29 02:37:05;;;;;;;22.90;10.43;;;;;;;12.73;100.00;102017.69;5012775;28;20049;-75
2022/10/29 02:39:31;;;;;;;25.80;9.82;;;;;;;12.70;100.00;102007.09;5028862;28;20355;-75
2022/10/29 02:41:57;;;;;;;15.70;9.15;;;;;;;12.69;100.00;102010.66;5059957;28;20048;-75
2022/10/29 02:44:22;;;;;;;19.35;9.57;;;;;;;12.66;100.00;102005.34;5031136;28;20156;-75
2022/10/29 02:46:48;;;;;;;18.85;8.95;;;;;;;12.62;100.00;101993.91;5041201;28;20029;-75
2022/10/29 02:49:13;;;;;;;20.23;9.88;;;;;;;12.60;100.00;101993.03;5016916;28;20049;-75
2022/10/29 02:51:39;;;;;;;27.00;9.68;;;;;;;12.58;100.00;101994.81;5029197;28;20077;-75
2022/10/29 02:54:04;;;;;;;20.20;9.00;;;;;;;12.55;100.00;101996.66;5012859;28;20041;-75
2022/10/29 02:56:29;;;;;;;20.02;10.02;;;;;;;12.54;100.00;101997.56;5045816;28;20168;-75
2022/10/29 02:58:55;;;;;;;18.85;9.60;;;;;;;12.52;100.00;102002.00;5020792;28;20525;-75
2022/10/29 03:01:20;;;;;;;19.65;9.90;;;;;;;12.49;100.00;101992.28;5030476;28;20045;-75
2022/10/29 03:03:46;;;;;;;17.50;9.40;;;;;;;12.48;100.00;101999.34;5030764;28;20029;-75
2022/10/29 03:06:17;;;;;;;19.63;8.95;;;;;;;12.44;100.00;101991.47;5030213;28;20433;-75
2022/10/29 03:08:44;;;;;;;22.20;9.63;;;;;;;12.42;100.00;101990.59;5030459;28;20026;-75
2022/10/29 03:11:09;;;;;;;31.90;10.55;;;;;;;12.40;100.00;101989.72;5030208;28;20032;-75
2022/10/29 03:13:35;;;;;;;16.25;8.93;;;;;;;12.38;100.00;101984.41;5030467;28;20033;-75
2022/10/29 03:16:01;;;;;;;15.80;9.75;;;;;;;12.35;100.00;101981.81;5030070;28;20111;-75
2022/10/29 03:18:27;;;;;;;20.08;8.93;;;;;;;12.34;100.00;101974.75;5045337;28;20057;-75
2022/10/29 03:20:52;;;;;;;17.88;9.07;;;;;;;12.33;100.00;101974.75;5030175;28;20120;-75
2022/10/29 03:23:17;;;;;;;19.80;9.27;;;;;;;12.34;100.00;101979.16;5030152;28;20045;-75
2022/10/29 03:25:43;;;;;;;18.98;9.85;;;;;;;12.34;100.00;101973.84;5029698;28;20035;-75
2022/10/29 03:28:09;;;;;;;22.10;9.63;;;;;;;12.33;100.00;101974.75;5030169;28;20440;-75
2022/10/29 03:30:34;;;;;;;21.10;10.48;;;;;;;12.35;100.00;101978.28;5030113;28;20052;-75
2022/10/29 03:33:00;;;;;;;21.90;11.05;;;;;;;12.39;100.00;101980.00;5028038;28;20041;-75
2022/10/29 03:35:26;;;;;;;21.33;10.98;;;;;;;12.38;100.00;101976.44;5032459;28;20053;-75
2022/10/29 03:37:52;;;;;;;16.27;9.50;;;;;;;12.41;100.00;101975.53;5032981;28;20576;-75
2022/10/29 03:40:18;;;;;;;22.17;10.10;;;;;;;12.40;100.00;101964.03;5037783;28;20033;-75
2022/10/29 03:42:44;;;;;;;25.83;10.10;;;;;;;12.45;100.00;101969.31;5041645;28;20432;-75
2022/10/29 03:45:10;;;;;;;25.08;11.00;;;;;;;12.47;100.00;101964.84;5032412;28;20048;-75
2022/10/29 03:47:35;;;;;;;23.52;10.82;;;;;;;12.50;100.00;101961.28;5038021;28;20039;-75
2022/10/29 03:50:01;;;;;;;17.60;10.00;;;;;;;12.51;100.00;101963.91;5031944;28;20141;-75
2022/10/29 03:52:27;;;;;;;19.35;10.45;;;;;;;12.54;100.00;101958.56;5032753;28;20021;-75
2022/10/29 03:54:53;;;;;;;23.45;10.65;;;;;;;12.57;100.00;101968.28;5031675;28;20612;-75
2022/10/29 03:57:18;;;;;;;20.30;10.02;;;;;;;12.58;100.00;101959.41;5033267;28;20037;-75
2022/10/29 03:59:44;;;;;;;19.90;10.10;;;;;;;12.61;100.00;101962.91;5034115;28;20389;-75
2022/10/29 04:02:11;;;;;;;21.50;10.43;;;;;;;12.63;100.00;101958.44;5032995;28;20369;-75
2022/10/29 04:04:37;;;;;;;25.60;10.07;;;;;;;12.63;100.00;101953.13;5032978;28;20022;-75
2022/10/29 04:07:03;;;;;;;23.23;10.65;;;;;;;12.66;100.00;101947.78;5033147;28;20029;-75
2022/10/29 04:09:28;;;;;;;22.98;10.63;;;;;;;12.66;100.00;101939.81;5015500;28;20481;-75
2022/10/29 04:11:54;;;;;;;26.20;10.50;;;;;;;12.68;100.00;101937.13;5032849;28;20073;-75
2022/10/29 04:14:19;;;;;;;25.05;11.00;;;;;;;12.68;100.00;101930.06;5031250;28;20025;-75
2022/10/29 04:16:44;;;;;;;22.45;9.93;;;;;;;12.68;100.00;101921.19;5032882;28;20026;-75
2022/10/29 04:19:10;;;;;;;17.73;10.48;;;;;;;12.68;100.00;101921.19;5033173;28;20466;-75
2022/10/29 04:21:35;;;;;;;20.60;9.85;;;;;;;12.66;100.00;101930.94;5031540;28;20029;-75
2022/10/29 04:24:01;;;;;;;20.25;10.27;;;;;;;12.65;100.00;101935.38;5031532;28;20053;-75
2022/10/29 04:26:26;;;;;;;20.70;9.63;;;;;;;12.63;100.00;101928.34;5031466;28;20042;-75
2022/10/29 04:28:52;;;;;;;24.60;10.07;;;;;;;12.64;100.00;101924.78;5032880;28;20099;-75
2022/10/29 04:31:17;;;;;;;22.83;10.75;;;;;;;12.63;100.00;101921.22;5031618;28;20184;-75
2022/10/29 04:33:43;;;;;;;15.10;9.30;;;;;;;12.61;100.00;101920.41;5019082;28;20083;-75
2022/10/29 04:36:09;;;;;;;20.33;9.88;;;;;;;12.65;100.00;101910.59;5015340;28;20539;-75
2022/10/29 04:38:35;;;;;;;20.67;10.35;;;;;;;12.64;100.00;101906.19;5032748;28;20063;-75
2022/10/29 04:41:01;;;;;;;23.35;10.45;;;;;;;12.65;100.00;101915.91;5043187;28;20507;-75
2022/10/29 04:43:28;;;;;;;20.65;10.35;;;;;;;12.66;100.00;101922.97;5035960;28;20128;-75
2022/10/29 04:45:55;;;;;;;20.30;10.02;;;;;;;12.63;100.00;101920.38;5035686;28;20043;-75
2022/10/29 04:48:22;;;;;;;23.77;11.20;;;;;;;12.62;100.00;101919.50;5038666;28;20119;-75
2022/10/29 04:50:47;;;;;;;20.42;10.02;;;;;;;12.59;100.00;101919.53;5047711;28;20416;-75
2022/10/29 04:53:14;;;;;;;22.63;10.32;;;;;;;12.56;100.00;101927.56;5032748;28;20033;-75
2022/10/29 04:55:40;;;;;;;23.48;11.23;;;;;;;12.53;100.00;101921.38;5032543;28;20102;-75
2022/10/29 04:58:10;;;;;;;20.08;10.63;;;;;;;12.50;100.00;101924.97;5036402;28;20036;-75
2022/10/29 05:00:36;;;;;;;24.45;10.73;;;;;;;12.49;100.00;101928.53;5036885;28;20053;-75
2022/10/29 05:03:01;;;;;;;29.48;11.35;;;;;;;12.46;100.00;101917.91;5031094;28;20068;-75
2022/10/29 05:05:27;;;;;;;23.45;11.15;;;;;;;12.44;100.00;101922.41;5031007;28;20034;-75
2022/10/29 05:07:58;;;;;;;21.25;10.98;;;;;;;12.41;100.00;101914.44;5030867;28;20064;-75
2022/10/29 05:10:29;;;;;;;27.80;10.65;;;;;;;12.40;100.00;101913.56;5031224;28;20052;-75
2022/10/29 05:12:59;;;;;;;25.15;12.73;;;;;;;12.38;100.00;101910.03;5032018;28;20033;-75
2022/10/29 05:15:26;;;;;;;28.15;10.82;;;;;;;12.37;100.00;101902.13;5047468;28;20128;-75
2022/10/29 05:17:51;;;;;;;21.10;10.77;;;;;;;12.36;100.00;101903.00;5031938;28;20491;-75
2022/10/29 05:20:16;;;;;;;23.92;11.73;;;;;;;12.34;100.00;101904.78;5032318;28;20029;-75
2022/10/29 05:22:42;;;;;;;26.60;11.32;;;;;;;12.33;100.00;101903.91;5031852;28;20041;-75
2022/10/29 05:25:08;;;;;;;25.40;11.75;;;;;;;12.31;100.00;101897.72;5032084;28;20099;-75
2022/10/29 05:27:33;;;;;;;20.02;11.93;;;;;;;12.32;100.00;101903.94;5030655;28;20395;-75
2022/10/29 05:29:59;;;;;;;19.23;11.25;;;;;;;12.30;100.00;101900.44;5014205;28;20057;-75
2022/10/29 05:32:27;;;;;;;21.67;10.90;;;;;;;12.31;100.00;101907.47;5030417;28;20037;-75
2022/10/29 05:34:52;;;;;;;24.25;10.40;;;;;;;12.26;100.00;101902.22;5030225;28;20033;-75
2022/10/29 05:37:18;;;;;;;24.23;11.52;;;;;;;12.26;100.00;101900.47;5030063;28;20073;-75
2022/10/29 05:39:43;;;;;;;26.00;12.15;;;;;;;12.24;100.00;101894.28;5030636;28;20030;-75
2022/10/29 05:42:09;;;;;;;22.50;11.10;;;;;;;12.26;100.00;101892.50;5044701;28;20091;-75
2022/10/29 05:44:34;;;;;;;23.52;11.07;;;;;;;12.27;100.00;101888.94;5031749;28;20045;-75
2022/10/29 05:47:00;;;;;;;25.58;11.95;;;;;;;12.30;100.00;101884.50;5041399;28;20041;-75
2022/10/29 05:49:25;;;;;;;30.67;13.02;;;;;;;12.34;100.00;101880.88;5031653;28;20035;-75
2022/10/29 05:51:51;;;;;;;25.48;12.85;;;;;;;12.35;100.00;101893.28;5031607;28;20073;-75
2022/10/29 05:54:17;;;;;;;25.92;13.27;;;;;;;12.38;100.00;101888.78;5031432;28;20052;-75
2022/10/29 05:56:43;;;;;;;30.08;13.52;;;;;;;12.39;100.00;101882.59;5045452;28;20025;-75
2022/10/29 05:59:08;;;;;;;24.70;13.60;;;;;;;12.40;100.00;101878.16;5040690;28;20128;-75
2022/10/29 06:01:34;;;;;;;25.20;12.82;;;;;;;12.42;100.00;101877.25;5031428;28;20045;-75
2022/10/29 06:04:00;;;;;;;25.65;13.23;;;;;;;12.43;100.00;101873.69;5031420;28;20033;-75
2022/10/29 06:06:26;;;;;;;27.98;13.30;;;;;;;12.44;100.00;101872.78;5031453;28;20030;-75
2022/10/29 06:08:52;;;;;;;29.88;13.80;;;;;;;12.49;100.00;101867.44;5046448;28;20033;-75
2022/10/29 06:11:17;;;;;;;23.05;14.02;;;;;;;12.51;100.00;101857.63;5030953;28;20037;-75
2022/10/29 06:13:43;;;;;;;32.08;15.60;;;;;;;12.57;100.00;101865.53;5029789;28;20048;-75
2022/10/29 06:16:08;;;;;;;28.70;13.85;;;;;;;12.58;100.00;101869.06;5031134;28;20076;-75
2022/10/29 06:18:34;;;;;;;29.00;14.32;;;;;;;12.63;100.00;101878.72;5013213;28;20363;-75
2022/10/29 06:20:59;;;;;;;33.10;13.90;;;;;;;12.65;100.00;101879.59;5031094;28;20041;-75
2022/10/29 06:23:26;;;;;;;29.58;15.40;;;;;;;12.68;100.00;101879.56;5030829;28;20033;-75
2022/10/29 06:25:52;;;;;;;28.80;14.30;;;;;;;12.72;100.00;101884.81;5030912;28;20544;-75
2022/10/29 06:28:18;;;;;;;30.98;15.15;;;;;;;12.77;100.00;101875.88;5030736;28;20042;-75
2022/10/29 06:30:48;;;;;;;32.53;14.52;;;;;;;12.81;100.00;101874.03;5030856;28;20553;-75
2022/10/29 06:33:16;;;;;;;25.23;14.40;;;;;;;12.88;100.00;101886.34;5028257;28;20045;-75
2022/10/29 06:35:41;;;;;;;28.77;14.23;;;;;;;12.90;100.00;101895.19;5011784;28;20037;-75
2022/10/29 06:38:07;;;;;;;35.40;14.85;;;;;;;12.91;100.00;101881.00;5030168;28;20095;-75
2022/10/29 06:40:32;;;;;;;32.75;15.48;;;;;;;12.94;100.00;101888.06;5029825;28;20385;-75
2022/10/29 06:43:03;;;;;;;29.48;13.98;;;;;;;12.94;100.00;101891.59;5045682;28;20045;-75
2022/10/29 06:45:29;;;;;;;27.85;14.02;;;;;;;12.98;100.00;101888.00;5027343;28;20083;-75
2022/10/29 06:47:55;;;;;;;33.10;13.77;;;;;;;13.00;100.00;101890.59;5030787;28;20061;-75
2022/10/29 06:50:22;;;;;;;28.27;12.93;;;;;;;13.00;100.00;101891.47;5028792;28;20120;-75
2022/10/29 06:53:06;;;;;;;21.10;12.73;;;;;;;13.02;100.00;101905.63;5026204;28;20045;-75
2022/10/29 06:55:33;;;;;;;28.52;13.25;;;;;;;13.04;100.00;101900.31;5028912;28;20175;-75
2022/10/29 06:58:09;;;;;;;28.70;14.18;;;;;;;13.06;100.00;101887.88;5030059;28;20045;-75
2022/10/29 07:00:35;;;;;;;31.55;14.20;;;;;;;13.10;100.00;101897.53;5028940;28;20029;-75
2022/10/29 07:03:02;;;;;;;25.23;13.63;;;;;;;13.12;100.00;101899.28;5029974;28;20048;-75
2022/10/29 07:05:28;;;;;;;32.20;14.73;;;;;;;13.16;100.00;101894.81;5029585;28;20037;-75
2022/10/29 07:08:01;;;;;;;29.17;12.23;;;;;;;13.16;100.00;101891.25;5030858;28;20049;-75
2022/10/29 07:10:31;;;;;;;25.30;13.50;;;;;;;13.18;100.00;101887.69;5049764;28;20053;-75
2022/10/29 07:12:58;;;;;;;28.80;13.30;;;;;;;13.18;100.00;101893.00;5033140;28;20133;-75
2022/10/29 07:15:28;;;;;;;28.80;13.98;;;;;;;13.21;100.00;101889.41;5049388;28;20140;-75
2022/10/29 07:18:03;;;;;;;30.70;13.95;;;;;;;13.24;100.00;101889.34;5016483;28;20033;-75
2022/10/29 07:20:31;;;;;;;30.27;14.55;;;;;;;13.25;100.00;101892.00;5032920;28;20064;-75
2022/10/29 07:22:58;;;;;;;28.42;13.60;;;;;;;13.25;100.00;101889.34;5033584;28;20034;-75
2022/10/29 07:25:24;;;;;;;27.40;12.93;;;;;;;13.25;100.00;101883.13;5033860;28;20132;-75
2022/10/29 07:27:49;;;;;;;35.50;14.68;;;;;;;13.28;100.00;101884.00;5048000;28;20033;-75
2022/10/29 07:30:16;;;;;;;27.48;14.95;;;;;;;13.33;100.00;101873.28;5033762;28;20029;-75
2022/10/29 07:32:42;;;;;;;28.00;12.75;;;;;;;13.33;100.00;101870.63;5032320;28;20029;-75
2022/10/29 07:35:08;;;;;;;27.40;13.15;;;;;;;13.37;100.00;101882.06;5033362;28;20048;-75
2022/10/29 07:37:33;;;;;;;33.10;13.93;;;;;;;13.38;100.00;101867.84;5032178;28;20049;-75
2022/10/29 07:39:59;;;;;;;22.77;10.63;;;;;;;13.40;100.00;101877.59;5034368;28;20037;-75
2022/10/29 07:42:24;;;;;;;28.85;14.35;;;;;;;13.46;100.00;101865.97;5033636;28;20029;-75
2022/10/29 07:44:50;;;;;;;31.90;14.10;;;;;;;13.51;100.00;101877.41;5033717;28;20390;-75
2022/10/29 07:47:15;;;;;;;41.25;14.75;;;;;;;13.55;100.00;101881.78;5033214;28;20034;-75
2022/10/29 07:49:41;;;;;;;30.13;14.35;;;;;;;13.57;100.00;101866.63;5033467;28;20025;-75
2022/10/29 07:52:08;;;;;;;34.13;14.80;;;;;;;13.61;100.00;101862.16;5046897;28;20119;-75
2022/10/29 07:54:34;;;;;;;29.40;15.52;;;;;;;13.68;100.00;101870.00;5048630;28;20168;-75
2022/10/29 07:57:00;;;;;;;40.25;15.57;;;;;;;13.75;100.00;101873.44;5033401;28;20108;-75
2022/10/29 07:59:25;;;;;;;29.25;14.52;;;;;;;13.79;100.00;101869.78;5033223;28;20045;-75
2022/10/29 08:01:51;;;;;;;28.80;15.45;;;;;;;13.81;100.00;101864.44;5031968;28;20033;-75
2022/10/29 08:04:16;;;;;;;27.83;15.40;;;;;;;13.84;100.00;101867.03;5033168;28;20041;-75
2022/10/29 08:06:42;;;;;;;35.08;14.80;;;;;;;13.89;100.00;101863.38;5031551;28;20033;-75
2022/10/29 08:09:09;;;;;;;28.13;15.02;;;;;;;13.96;100.00;101870.34;5030759;28;20046;-75
2022/10/29 08:11:35;;;;;;;34.97;15.52;;;;;;;13.98;100.00;101872.97;5032253;28;20457;-75
2022/10/29 08:14:00;;;;;;;35.78;15.52;;;;;;;14.03;100.00;101870.22;5033276;28;20052;-75
2022/10/29 08:16:25;;;;;;;24.90;14.93;;;;;;;14.06;100.00;101867.50;5031852;28;20056;-75
2022/10/29 08:18:51;;;;;;;36.10;14.85;;;;;;;14.10;100.00;101856.75;5033508;28;20069;-75
2022/10/29 08:21:17;;;;;;;33.17;14.40;;;;;;;14.15;100.00;101854.00;5032007;28;20030;-75
2022/10/29 08:23:43;;;;;;;38.40;15.07;;;;;;;14.23;100.00;101854.72;5033476;28;20033;-75
2022/10/29 08:26:09;;;;;;;34.00;14.85;;;;;;;14.28;100.00;101862.63;5033295;28;20060;-75
2022/10/29 08:28:34;;;;;;;30.10;15.23;;;;;;;14.34;100.00;101862.47;5031956;28;20493;-75
2022/10/29 08:31:00;;;;;;;27.60;14.98;;;;;;;14.39;100.00;101842.84;5015409;28;20481;-75
2022/10/29 08:33:25;;;;;;;21.33;13.30;;;;;;;14.41;100.00;101835.69;5019223;28;20030;-75
2022/10/29 08:35:53;;;;;;;21.38;13.30;;;;;;;14.49;100.00;101842.59;5031712;28;20079;-75
2022/10/29 08:38:19;;;;;;;30.52;15.63;;;;;;;14.53;100.00;101831.88;5032950;28;20057;-75
2022/10/29 08:41:22;;;;;;;33.38;15.32;;;;;;;14.59;100.00;101845.09;5029347;28;20037;-75
2022/10/29 08:44:14;;;;;;;25.88;14.10;;;;;;;14.67;100.00;101857.38;5029667;28;20029;-75
2022/10/29 08:46:47;;;;;;;36.50;15.75;;;;;;;14.76;100.00;101855.38;5032260;28;20037;-75
2022/10/29 08:49:18;;;;;;;29.52;16.20;;;;;;;14.86;100.00;101863.13;5032782;28;20033;-75
2022/10/29 08:52:01;;;;;;;36.17;16.25;;;;;;;14.93;100.00;101862.06;5032270;28;20048;-75
2022/10/29 08:54:33;;;;;;;24.02;14.40;;;;;;;14.99;100.00;101851.28;5029384;28;20377;-75
2022/10/29 08:57:05;;;;;;;24.83;14.98;;;;;;;15.03;100.00;101847.59;5031946;28;20060;-76
2022/10/29 08:59:36;;;;;;;28.67;14.48;;;;;;;15.08;100.00;101850.16;5041573;28;20025;-76
2022/10/29 09:02:02;;;;;;;26.05;15.63;;;;;;;15.15;100.00;101847.31;5031893;28;20406;-76
2022/10/29 09:04:34;;;;;;;35.10;15.32;;;;;;;15.21;100.00;101838.28;5032503;28;20060;-75
2022/10/29 09:07:05;;;;;;;26.55;13.65;;;;;;;15.26;100.00;101839.06;5031601;28;20040;-75
2022/10/29 09:09:37;;;;;;;34.58;15.35;;;;;;;15.31;100.00;101837.13;5046533;28;20370;-75
2022/10/29 09:12:25;;;;;;;31.52;15.20;;;;;;;15.39;100.00;101828.94;5031590;28;20501;-75
2022/10/29 09:15:08;;;;;;;34.15;15.02;;;;;;;15.49;100.00;101831.31;5031222;28;20381;-75
2022/10/29 09:18:04;;;;;;;28.23;15.15;;;;;;;15.58;100.00;101819.53;5031391;28;20585;-75
2022/10/29 09:21:08;;;;;;;23.02;14.10;;;;;;;15.66;100.00;101824.66;5031429;28;20056;-75
2022/10/29 09:24:01;;;;;;;25.85;14.68;;;;;;;15.73;100.00;101825.41;5031159;28;20065;-75
2022/10/29 09:26:36;;;;;;;28.65;15.30;;;;;;;15.78;100.00;101827.00;5031087;28;20033;-76
2022/10/29 09:29:19;;;;;;;31.48;14.30;;;;;;;15.84;100.00;101825.97;5031660;28;20040;-76
2022/10/29 09:31:49;;;;;;;25.15;15.15;;;;;;;15.87;100.00;101818.75;5027689;28;20461;-76
2022/10/29 09:34:29;;;;;;;34.22;14.95;;;;;;;15.93;100.00;101820.38;5020730;28;20362;-76
2022/10/29 09:36:56;;;;;;;28.92;15.45;;;;;;;15.98;100.00;101815.75;5029874;28;20049;-76
2022/10/29 09:39:38;;;;;;;30.48;14.70;;;;;;;16.03;100.00;101812.97;5045466;28;20045;-76
2022/10/29 09:42:10;;;;;;;30.55;15.65;;;;;;;16.08;100.00;101808.34;5031522;28;20731;-76
2022/10/29 09:44:54;;;;;;;26.70;14.55;;;;;;;16.09;100.00;101816.31;5030458;28;20086;-76
2022/10/29 09:47:37;;;;;;;25.77;14.95;;;;;;;16.12;100.00;101823.34;5031619;28;20409;-76
2022/10/29 09:50:31;;;;;;;29.95;15.05;;;;;;;16.17;100.00;101826.81;5030254;28;20037;-76
2022/10/29 09:52:58;;;;;;;30.58;14.25;;;;;;;16.22;100.00;101813.28;5028332;28;20045;-76
2022/10/29 09:55:27;;;;;;;29.52;14.23;;;;;;;16.26;100.00;101798.91;5012756;28;20381;-76
2022/10/29 09:57:57;;;;;;;27.88;14.93;;;;;;;16.37;100.00;101793.22;5030484;28;20048;-76
2022/10/29 10:00:26;;;;;;;26.60;14.65;;;;;;;16.46;100.00;101793.81;5029362;28;20038;-76
2022/10/29 10:03:17;;;;;;;28.30;13.50;;;;;;;16.59;100.00;101790.75;5030316;28;20457;-76
2022/10/29 10:06:15;;;;;;;28.98;14.63;;;;;;;16.70;100.00;101792.16;5029536;28;20040;-76
2022/10/29 10:09:03;;;;;;;30.52;13.50;;;;;;;16.83;100.00;101798.03;5003645;28;20051;-76
2022/10/29 10:11:38;;;;;;;23.92;13.25;;;;;;;16.97;99.53;101797.56;5029430;28;20357;-77
2022/10/29 10:14:15;;;;;;;24.17;13.05;;;;;;;17.18;97.35;101790.59;5030837;28;20033;-76
2022/10/29 10:16:41;;;;;;;25.70;13.75;;;;;;;17.46;96.94;101787.88;5031255;28;20104;-76
2022/10/29 10:19:28;;;;;;;22.35;12.65;;;;;;;17.71;95.58;101786.97;5031159;28;20498;-76
2022/10/29 10:21:58;;;;;;;27.25;12.48;;;;;;;17.90;92.06;101790.72;5026944;28;20037;-76
2022/10/29 10:24:35;;;;;;;22.48;12.43;;;;;;;18.10;94.29;101795.38;5030824;28;20035;-77
2022/10/29 10:27:24;;;;;;;26.95;11.75;;;;;;;18.30;93.24;101782.97;5031300;28;20108;-78
2022/10/29 10:30:02;;;;;;;33.70;11.15;;;;;;;18.44;91.21;101784.19;5030948;28;20038;-77
2022/10/29 10:32:27;;;;;;;23.10;10.75;;;;;;;18.60;90.00;101771.03;5045577;28;20052;-77
2022/10/29 10:34:53;;;;;;;25.42;9.50;;;;;;;18.77;88.35;101774.84;5030199;28;20029;-77
2022/10/29 10:37:20;;;;;;;24.58;9.35;;;;;;;18.90;86.42;101770.75;5031481;28;20059;-77
2022/10/29 10:40:04;;;;;;;23.10;9.30;;;;;;;19.04;86.10;101765.69;5033396;28;20025;-77
2022/10/29 10:42:38;;;;;;;19.67;8.55;;;;;;;19.20;84.39;101760.50;5042150;28;20044;-77
2022/10/29 10:45:33;;;;;;;21.15;8.43;;;;;;;19.35;84.52;101761.66;5035808;28;20026;-77
2022/10/29 10:47:59;;;;;;;23.60;9.10;;;;;;;19.55;82.87;101764.31;5037893;28;20541;-77
2022/10/29 10:50:29;;;;;;;21.83;9.00;;;;;;;19.69;81.85;101760.19;5037566;28;20032;-77
2022/10/29 10:53:01;;;;;;;26.00;7.90;;;;;;;19.86;80.42;101756.72;5037628;28;20525;-77
2022/10/29 10:55:31;;;;;;;24.77;8.02;;;;;;;20.03;79.31;101754.13;5035746;28;20087;-78
2022/10/29 10:58:18;;;;;;;29.42;11.18;;;;;;;20.28;80.00;101750.28;5038985;28;20532;-78
2022/10/29 11:00:54;;;;;;;27.50;10.77;;;;;;;20.50;79.61;101742.91;5055460;28;20037;-78
2022/10/29 11:03:28;;;;;;;17.55;8.05;;;;;;;20.54;74.71;101740.91;5027283;28;20053;-77
2022/10/29 11:06:06;;;;;;;22.33;7.15;;;;;;;20.69;75.07;101755.47;5037048;28;20037;-77
2022/10/29 11:08:49;;;;;;;17.65;6.78;;;;;;;20.78;74.59;101747.81;5021022;28;20092;-77
2022/10/29 11:11:23;;;;;;;20.92;9.02;;;;;;;20.95;73.53;101743.41;5034816;28;20025;-77
2022/10/29 11:13:49;;;;;;;17.75;6.85;;;;;;;21.21;74.89;101745.59;5037249;28;20030;-77
2022/10/29 11:16:26;;;;;;;18.88;7.15;;;;;;;21.34;74.66;101747.63;5036831;28;20031;-77
2022/10/29 11:18:59;;;;;;;19.98;6.28;;;;;;;21.42;72.06;101750.84;5037254;28;20445;-77